Flight Track Log - Related Links

Times and Time Zones

All times are in EDT time to prevent confusion due to time zone crossing. See the N682RW flight status page for this flight to view local times or setup timezone preferences in your user account.

Time Position Orientation Groundspeed Altitude Reporting Facility
EDT Latitude Longitude Course Direction KTS MPH feet Rate Location/Type
Sun 07:54:38 PM 29.6283 -95.2586 62° Northeast 169 194 800  Level Houston Center
Sun 07:55:45 PM 29.6511 -95.2103 62° Northeast 272 313 2,400 1,484 Climbing Houston Center
Sun 07:56:11 PM 29.6786 -95.2186 345° North 273 314 3,100 2,903 Climbing Houston Center
Sun 07:56:47 PM 29.7303 -95.2486 333° Northwest 305 351 5,400 3,000 Climbing Houston Center
Sun 07:57:13 PM 29.7514 -95.2581 339° North 283 326 6,200 2,182 Climbing Houston Center
Sun 07:58:15 PM 29.8317 -95.2883 342° North 303 349 8,600 2,565 Climbing Houston Center
Sun 07:59:17 PM 29.9397 -95.2494 17° North 340 391 11,500 2,323 Climbing Houston Center
Sun 08:00:19 PM 30.0392 -95.2244 12° North 360 414 13,400 2,081 Climbing Houston Center
Sun 08:01:21 PM 30.1458 -95.2014 11° North 386 444 15,800 2,129 Climbing Houston Center
Sun 08:02:23 PM 30.2542 -95.1697 14° North 395 455 17,800 2,064 Climbing Houston Center
Sun 08:03:26 PM 30.3644 -95.1372 14° North 404 465 20,100 2,112 Climbing Houston Center
Sun 08:04:28 PM 30.4894 -95.1025 13° North 409 471 22,200 1,935 Climbing Houston Center
Sun 08:05:30 PM 30.5997 -95.0675 15° North 410 472 24,100 1,597 Climbing Houston Center
Sun 08:06:32 PM 30.7017 -95.0036 28° Northeast 415 478 25,500 1,306 Climbing Houston Center
Sun 08:07:34 PM 30.8031 -94.9358 30° Northeast 418 481 26,800 1,355 Climbing Houston Center
Sun 08:08:36 PM 30.9064 -94.8692 29° Northeast 422 486 28,300 1,403 Climbing Houston Center
Sun 08:09:38 PM 31.0308 -94.7892 29° Northeast 424 488 29,700 1,306 Climbing Houston Center
Sun 08:10:40 PM 31.1319 -94.7214 30° Northeast 424 488 31,000 629 Climbing Houston Center
Sun 08:11:42 PM 31.2378 -94.6553 28° Northeast 429 494 31,000  Level Houston Center
Sun 08:12:44 PM 31.3433 -94.5864 29° Northeast 456 525 31,000  Level Houston Center
Sun 08:13:46 PM 31.4703 -94.5033 29° Northeast 441 507 31,000  Level Houston Center
Sun 08:14:48 PM 31.5767 -94.4308 30° Northeast 441 507 31,000  Level Houston Center
Sun 08:15:40 PM 31.6611 -94.3719 31° Northeast 443 510 31,000  Level Fort Worth Center
Sun 08:16:42 PM 31.7567 -94.2783 40° Northeast 445 512 31,000  Level Fort Worth Center
Sun 08:17:44 PM 31.8525 -94.1858 39° Northeast 446 513 31,000  Level Fort Worth Center
Sun 08:18:46 PM 31.9681 -94.0744 39° Northeast 449 517 31,000  Level Fort Worth Center
Sun 08:19:49 PM 32.0653 -93.9811 39° Northeast 449 517 31,000  Level Fort Worth Center
Sun 08:20:51 PM 32.1633 -93.8864 39° Northeast 451 519 31,000  Level Fort Worth Center
Sun 08:21:53 PM 32.2636 -93.7867 40° Northeast 455 524 31,000  Level Fort Worth Center
Sun 08:22:55 PM 32.3603 -93.6936 39° Northeast 453 521 31,000 48 Level Fort Worth Center
Sun 08:23:57 PM 32.4572 -93.6000 39° Northeast 453 521 31,100 677 Climbing Fort Worth Center
Sun 08:24:59 PM 32.5514 -93.5053 40° Northeast 449 517 32,400 919 Climbing Fort Worth Center
Sun 08:26:01 PM 32.6650 -93.3953 39° Northeast 444 511 33,000 290 Climbing Fort Worth Center
Sun 08:27:03 PM 32.7600 -93.3011 40° Northeast 445 512 33,000 339 Level Fort Worth Center
Sun 08:28:05 PM 32.8556 -93.2081 39° Northeast 445 512 33,700 677 Climbing Fort Worth Center
Sun 08:29:07 PM 32.9478 -93.1161 40° Northeast 444 511 34,400 581 Climbing Fort Worth Center
Sun 08:30:09 PM 33.0411 -93.0244 39° Northeast 439 505 34,900 290 Climbing Fort Worth Center
Sun 08:31:11 PM 33.1525 -92.9139 40° Northeast 439 505 35,000 48 Climbing Fort Worth Center
Sun 08:32:14 PM 33.2475 -92.8186 40° Northeast 445 512 35,000  Level Fort Worth Center
Sun 08:33:16 PM 33.3433 -92.7231 40° Northeast 449 517 35,000  Level Fort Worth Center
Sun 08:34:18 PM 33.4386 -92.6267 40° Northeast 449 517 35,000  Level Fort Worth Center
Sun 08:35:20 PM 33.5356 -92.5303 40° Northeast 451 519 35,000  Level Fort Worth Center
Sun 08:36:22 PM 33.6522 -92.4114 40° Northeast 455 524 35,000  Level Fort Worth Center
Sun 08:37:24 PM 33.7492 -92.3139 40° Northeast 455 524 35,000  Level Fort Worth Center
Sun 08:38:42 PM 33.8672 -92.1969 39° Northeast 456 525 35,000  Level Memphis Center
Sun 08:39:43 PM 33.9642 -92.0983 40° Northeast 457 526 35,000  Level Memphis Center
Sun 08:40:45 PM 34.0808 -91.9789 40° Northeast 457 526 35,000  Level Memphis Center
Sun 08:41:46 PM 34.1817 -91.8742 41° Northeast 460 529 35,000  Level Memphis Center
Sun 08:42:48 PM 34.2778 -91.7742 41° Northeast 460 529 35,000  Level Memphis Center
Sun 08:43:49 PM 34.3617 -91.6875 40° Northeast 460 529 35,000  Level Memphis Center
Sun 08:44:51 PM 34.4794 -91.5664 40° Northeast 460 529 35,000  Level Memphis Center
Sun 08:45:52 PM 34.5772 -91.4647 41° Northeast 460 529 35,000  Level Memphis Center
Sun 08:46:53 PM 34.6756 -91.3628 40° Northeast 461 531 35,000  Level Memphis Center
Sun 08:47:55 PM 34.7731 -91.2603 41° Northeast 461 531 35,000  Level Memphis Center
Sun 08:48:56 PM 34.8706 -91.1594 40° Northeast 461 531 35,000  Level Memphis Center
Sun 08:49:58 PM 34.9675 -91.0564 41° Northeast 461 531 35,000  Level Memphis Center
Sun 08:50:59 PM 35.0639 -90.9558 40° Northeast 460 529 35,000  Level Memphis Center
Sun 08:52:01 PM 35.1594 -90.8533 41° Northeast 459 528 35,000  Level Memphis Center
Sun 08:53:02 PM 35.2564 -90.7500 41° Northeast 459 528 35,000  Level Memphis Center
Sun 08:54:04 PM 35.3739 -90.6231 41° Northeast 461 531 35,000  Level Memphis Center
Sun 08:55:05 PM 35.4708 -90.5200 41° Northeast 461 531 35,000  Level Memphis Center
Sun 08:56:06 PM 35.5681 -90.4164 41° Northeast 461 531 35,000  Level Memphis Center
Sun 08:57:08 PM 35.6642 -90.3106 42° Northeast 461 531 35,000  Level Memphis Center
Sun 08:58:09 PM 35.7664 -90.2003 41° Northeast 461 531 35,000  Level Memphis Center
Sun 08:59:11 PM 35.8647 -90.0950 41° Northeast 462 532 35,000  Level Memphis Center
Sun 09:00:12 PM 35.9622 -89.9881 42° Northeast 466 536 35,000  Level Memphis Center
Sun 09:01:13 PM 36.0611 -89.8797 42° Northeast 469 540 35,000  Level Memphis Center
Sun 09:02:15 PM 36.1594 -89.7728 41° Northeast 471 542 35,000  Level Memphis Center
Sun 09:03:16 PM 36.2583 -89.6631 42° Northeast 471 542 35,000  Level Memphis Center
Sun 09:04:18 PM 36.3578 -89.5556 41° Northeast 472 543 35,000  Level Memphis Center
Sun 09:05:19 PM 36.4597 -89.4442 41° Northeast 472 543 35,000  Level Memphis Center
Sun 09:06:20 PM 36.5611 -89.3289 42° Northeast 478 550 35,000  Level Memphis Center
Sun 09:07:22 PM 36.6597 -89.2172 42° Northeast 477 549 35,000  Level Memphis Center
Sun 09:08:23 PM 36.7672 -89.1197 36° Northeast 483 556 35,000  Level Memphis Center
Sun 09:09:25 PM 36.8828 -89.0389 29° Northeast 482 555 35,000  Level Memphis Center
Sun 09:10:26 PM 36.9967 -88.9553 30° Northeast 480 552 35,000  Level Memphis Center
Sun 09:11:27 PM 37.1342 -88.8553 30° Northeast 478 550 35,000  Level Memphis Center
Sun 09:12:29 PM 37.2503 -88.7719 30° Northeast 478 550 35,000  Level Memphis Center
Sun 09:13:30 PM 37.3569 -88.6694 37° Northeast 480 552 35,000  Level Memphis Center
Sun 09:14:31 PM 37.4658 -88.5697 36° Northeast 481 554 35,000  Level Memphis Center
Sun 09:15:33 PM 37.5747 -88.4714 36° Northeast 481 554 35,000  Level Memphis Center
Sun 09:16:34 PM 37.6833 -88.3753 35° Northeast 481 554 35,000  Level Memphis Center
Sun 09:17:35 PM 37.7903 -88.2756 36° Northeast 480 552 35,000  Level Memphis Center
Sun 09:18:37 PM 37.8978 -88.1794 35° Northeast 477 549 35,000  Level Memphis Center
Sun 09:19:38 PM 38.0153 -88.0708 36° Northeast 477 549 35,000  Level Memphis Center
Sun 09:20:40 PM 38.1244 -87.9697 36° Northeast 478 550 35,000  Level Memphis Center
Sun 09:21:57 PM 38.2692 -87.8367 36° Northeast 480 552 35,000 -173 Level Indianapolis Center
Sun 09:22:59 PM 38.3800 -87.7367 35° Northeast 481 554 34,600 -634 Descending Indianapolis Center
Sun 09:24:00 PM 38.4881 -87.6339 37° Northeast 475 547 33,700 -738 Descending Indianapolis Center
Sun 09:25:01 PM 38.5925 -87.5389 35° Northeast 467 537 33,100 -344 Descending Indianapolis Center
Sun 09:26:02 PM 38.6983 -87.4386 36° Northeast 467 537 33,000 -49 Descending Indianapolis Center
Sun 09:27:04 PM 38.8044 -87.3381 36° Northeast 467 537 33,000  Level Indianapolis Center
Sun 09:28:05 PM 38.9119 -87.2369 36° Northeast 470 541 33,000  Level Indianapolis Center
Sun 09:29:06 PM 39.0183 -87.1347 37° Northeast 471 542 33,000  Level Indianapolis Center
Sun 09:30:07 PM 39.1253 -87.0325 37° Northeast 473 544 33,000  Level Indianapolis Center
Sun 09:31:08 PM 39.2347 -86.9286 36° Northeast 473 544 33,000  Level Indianapolis Center
Sun 09:32:10 PM 39.3406 -86.8278 36° Northeast 473 544 33,000  Level Indianapolis Center
Sun 09:33:11 PM 39.4469 -86.7247 37° Northeast 473 544 33,000  Level Indianapolis Center
Sun 09:34:12 PM 39.5539 -86.6214 37° Northeast 475 547 33,000  Level Indianapolis Center
Sun 09:35:13 PM 39.6611 -86.5178 37° Northeast 475 547 33,000  Level Indianapolis Center
Sun 09:36:14 PM 39.7708 -86.4147 36° Northeast 476 548 33,000  Level Indianapolis Center
Sun 09:37:16 PM 39.8822 -86.3033 37° Northeast 482 555 33,000  Level Indianapolis Center
Sun 09:38:17 PM 39.9883 -86.1956 38° Northeast 480 552 33,000  Level Indianapolis Center
Sun 09:39:18 PM 40.1169 -86.0664 38° Northeast 481 554 33,000  Level Indianapolis Center
Sun 09:40:19 PM 40.2236 -85.9594 37° Northeast 481 554 33,000  Level Indianapolis Center
Sun 09:41:20 PM 40.3303 -85.8517 38° Northeast 482 555 33,000 -585 Level Indianapolis Center
Sun 09:42:22 PM 40.4364 -85.7442 38° Northeast 482 555 31,800 -1,805 Descending Indianapolis Center
Sun 09:43:23 PM 40.5414 -85.6375 38° Northeast 482 555 29,300 -2,262 Descending Indianapolis Center
Sun 09:44:24 PM 40.6450 -85.5319 38° Northeast 478 550 27,200 -2,164 Descending Indianapolis Center
Sun 09:45:25 PM 40.7458 -85.4289 38° Northeast 464 534 24,900 -1,951 Descending Indianapolis Center
Sun 09:46:27 PM 40.8464 -85.3256 38° Northeast 460 529 23,200 -1,317 Descending Indianapolis Center
Sun 09:47:28 PM 40.9447 -85.2225 38° Northeast 457 526 22,200 -917 Descending Indianapolis Center
Sun 09:48:51 PM 41.0842 -85.0736 39° Northeast 442 509 21,000 -500 Descending Chicago Center
Sun 09:49:52 PM 41.1778 -84.9739 39° Northeast 438 504 21,000  Level Chicago Center
Sun 09:50:54 PM 41.2719 -84.8728 39° Northeast 438 504 21,000  Level Chicago Center
Sun 09:51:55 PM 41.3656 -84.7700 39° Northeast 439 505 21,000 -1,073 Level Chicago Center
Sun 09:52:57 PM 41.4572 -84.6206 51° Northeast 439 505 18,800 -2,049 Descending Chicago Center
Sun 09:53:58 PM 41.5319 -84.5039 49° Northeast 422 486 16,800 -2,066 Descending Chicago Center
Sun 09:54:59 PM 41.6031 -84.3922 50° Northeast 400 460 14,600 -1,610 Descending Chicago Center
Sun 09:56:01 PM 41.6725 -84.2817 50° Northeast 391 450 13,500 -1,075 Descending Chicago Center
Sun 09:56:45 PM 41.7269 -84.1983 49° Northeast 381 438 12,700 -944 Descending Cleveland Center
Sun 09:57:30 PM 41.7742 -84.1236 50° Northeast 377 434 12,100 -396 Descending Cleveland Center
Sun 09:58:31 PM 41.8381 -84.0192 51° Northeast 367 422 12,000 -49 Descending Cleveland Center
Sun 09:59:33 PM 41.9119 -83.9247 44° Northeast 367 422 12,000  Level Cleveland Center
Sun 10:00:34 PM 41.9858 -83.8297 44° Northeast 367 422 12,000  Level Cleveland Center
Sun 10:01:35 PM 42.0589 -83.7356 44° Northeast 367 422 12,000 -155 Level Cleveland Center
Sun 10:02:30 PM 42.1342 -83.6386 44° Northeast 330 380 11,700 -780 Descending Cleveland Center
Sun 10:03:38 PM 42.1947 -83.5608 44° Northeast 313 360 10,400 -1,721 Descending Cleveland Center
Sun 10:04:32 PM 42.2647 -83.5022 32° Northeast 273 314 8,200 -1,721 Descending Cleveland Center
Sun 10:05:40 PM 42.3414 -83.4525 26° Northeast 273 314 6,900 -793 Descending Cleveland Center
Sun 10:06:33 PM 42.3619 -83.3836 68° East 238 274 6,600 -563 Descending Cleveland Center
Sun 10:06:44 PM 42.3631 -83.3708 83° East 249 287 6,300 -2,200 Descending Cleveland Center
Sun 10:07:33 PM 42.3672 -83.2881 86° East 236 272 4,400 -1,932 Descending Cleveland Center
Sun 10:07:43 PM 42.3683 -83.2922 290° West 244 281 4,400 -1,377 Level Cleveland Center
Sun 10:08:34 PM 42.3322 -83.2522 141° Southeast 179 206 3,000 -1,475 Descending Cleveland Center
Sun 10:08:44 PM 42.3344 -83.2514 15° North 226 260 2,900 -689 Descending Cleveland Center
Sun 10:09:35 PM 42.2947 -83.2781 206° Southwest 143 165 2,300 -590 Descending Cleveland Center
Sun 10:09:45 PM 42.2964 -83.2786 346° North 165 190 2,300 -800 Level Cleveland Center
Sun 10:10:35 PM 42.2611 -83.3044 208° Southwest 125 144 1,500 -885 Descending Cleveland Center
Sun 10:10:46 PM 42.2569 -83.3069 204° Southwest 141 162 1,400 -590 Descending Cleveland Center
Sun 10:11:36 PM 42.2303 -83.3253 207° Southwest 126 145 900 -290 Descending Cleveland Center
Sun 10:11:48 PM 42.2306 -83.3267 285° West 133 153 1,100 1,000 Climbing Cleveland Center

Login

Don't have an account? Register now (free) for customized features, flight alerts, and more!